createdAt,value
2018-05-31T00:00:02.697Z,17.72
2018-05-31T00:01:02.734Z,17.71
2018-05-31T00:02:02.776Z,17.68
2018-05-31T00:03:02.821Z,17.72
2018-05-31T00:04:02.869Z,17.72
2018-05-31T00:05:02.900Z,17.77
2018-05-31T00:06:02.934Z,17.78
2018-05-31T00:07:02.975Z,17.79
2018-05-31T00:08:03.017Z,17.86
2018-05-31T00:09:03.052Z,17.81
2018-05-31T00:10:03.103Z,17.89
2018-05-31T00:11:03.131Z,17.87
2018-05-31T00:12:03.173Z,17.92
2018-05-31T00:13:03.212Z,17.81
2018-05-31T00:14:03.250Z,17.82
2018-05-31T00:15:03.292Z,17.78
2018-05-31T00:16:03.331Z,17.63
2018-05-31T00:17:03.386Z,17.68
2018-05-31T00:18:03.411Z,17.71
2018-05-31T00:19:03.456Z,17.58
2018-05-31T00:20:03.490Z,17.55
2018-05-31T00:21:03.529Z,17.62
2018-05-31T00:22:03.568Z,17.59
2018-05-31T00:23:03.605Z,17.58
2018-05-31T00:24:03.651Z,17.56
2018-05-31T00:25:03.721Z,17.54
2018-05-31T00:26:03.727Z,17.62
2018-05-31T00:27:03.767Z,17.63
2018-05-31T00:28:03.811Z,17.63
2018-05-31T00:29:03.845Z,17.63
2018-05-31T00:30:03.885Z,17.62
2018-05-31T00:31:03.925Z,17.66
2018-05-31T00:32:03.970Z,17.55
2018-05-31T00:33:04.005Z,17.58
2018-05-31T00:34:04.052Z,17.62
2018-05-31T00:35:04.185Z,17.70
2018-05-31T00:36:04.127Z,17.59
2018-05-31T00:37:04.160Z,17.62
2018-05-31T00:38:04.201Z,17.64
2018-05-31T00:39:04.240Z,17.63
2018-05-31T00:40:04.281Z,17.64
2018-05-31T00:41:04.320Z,17.63
2018-05-31T00:42:04.359Z,17.59
2018-05-31T00:43:04.406Z,17.52
2018-05-31T00:44:04.440Z,17.56
2018-05-31T00:45:04.477Z,17.52
2018-05-31T00:46:04.515Z,17.46
2018-05-31T00:47:04.555Z,17.55
2018-05-31T00:48:04.595Z,17.44
2018-05-31T00:49:04.652Z,17.59
2018-05-31T00:50:04.672Z,17.55
2018-05-31T00:51:04.715Z,17.52
2018-05-31T00:52:04.769Z,17.49
2018-05-31T00:53:04.799Z,17.51
2018-05-31T00:54:04.831Z,17.40
2018-05-31T00:55:04.871Z,17.46
2018-05-31T00:56:04.912Z,17.38
2018-05-31T00:57:04.951Z,17.36
2018-05-31T00:58:04.990Z,17.51
2018-05-31T00:59:05.032Z,17.46
2018-05-31T01:00:05.069Z,17.51
2018-05-31T01:01:05.117Z,17.51
2018-05-31T01:02:05.148Z,17.52
2018-05-31T01:03:05.187Z,17.49
2018-05-31T01:04:05.226Z,17.52
2018-05-31T01:05:05.268Z,17.48
2018-05-31T01:06:05.310Z,17.51
2018-05-31T01:07:05.347Z,17.52
2018-05-31T01:08:05.386Z,17.43
2018-05-31T01:09:05.424Z,17.54
2018-05-31T01:10:05.475Z,17.44
2018-05-31T01:11:05.504Z,17.38
2018-05-31T01:12:05.546Z,17.38
2018-05-31T01:13:05.584Z,17.44
2018-05-31T01:14:05.627Z,17.44
2018-05-31T01:15:05.661Z,17.46
2018-05-31T01:16:05.702Z,17.52
2018-05-31T01:17:05.740Z,17.40
2018-05-31T01:18:05.780Z,17.41
2018-05-31T01:19:05.819Z,17.40
2018-05-31T01:20:05.861Z,17.44
2018-05-31T01:21:05.898Z,17.46
2018-05-31T01:22:05.938Z,17.43
2018-05-31T01:23:05.976Z,17.41
2018-05-31T01:24:06.016Z,17.40
2018-05-31T01:25:06.057Z,17.46
2018-05-31T01:26:06.096Z,17.48
2018-05-31T01:27:06.134Z,17.38
2018-05-31T01:28:06.174Z,17.33
2018-05-31T01:29:06.212Z,17.44
2018-05-31T01:30:06.259Z,17.41
2018-05-31T01:31:06.291Z,17.43
2018-05-31T01:32:06.367Z,17.41
2018-05-31T01:33:06.369Z,17.41
2018-05-31T01:34:06.409Z,17.36
2018-05-31T01:35:06.453Z,17.41
2018-05-31T01:36:06.495Z,17.41
2018-05-31T01:37:06.529Z,17.28
2018-05-31T01:38:06.575Z,17.23
2018-05-31T01:39:06.608Z,17.33
2018-05-31T01:40:06.648Z,17.22
2018-05-31T01:41:06.685Z,17.33
2018-05-31T01:42:06.725Z,17.31
2018-05-31T01:43:06.764Z,17.31
2018-05-31T01:44:06.804Z,17.25
2018-05-31T01:45:06.844Z,17.16
2018-05-31T01:46:06.882Z,17.22
2018-05-31T01:47:06.921Z,17.19
2018-05-31T01:48:06.960Z,17.18
2018-05-31T01:49:06.999Z,17.19
2018-05-31T01:50:07.038Z,17.22
2018-05-31T01:51:07.079Z,17.16
2018-05-31T01:52:07.118Z,17.12
2018-05-31T01:53:07.157Z,17.11
2018-05-31T01:54:07.195Z,17.04
2018-05-31T01:55:07.235Z,17.06
2018-05-31T01:56:07.277Z,16.94
2018-05-31T01:57:07.320Z,17.04
2018-05-31T01:58:07.353Z,16.96
2018-05-31T01:59:07.391Z,16.85
2018-05-31T02:00:07.431Z,16.86
2018-05-31T02:01:07.474Z,16.86
2018-05-31T02:02:07.512Z,16.98
2018-05-31T02:03:07.550Z,17.06
2018-05-31T02:04:07.588Z,17.04
2018-05-31T02:05:07.672Z,17.07
2018-05-31T02:06:07.666Z,17.04
2018-05-31T02:07:07.706Z,17.12
2018-05-31T02:08:07.745Z,17.03
2018-05-31T02:09:07.783Z,17.06
2018-05-31T02:10:07.825Z,17.03
2018-05-31T02:11:07.862Z,16.96
2018-05-31T02:12:07.904Z,16.94
2018-05-31T02:13:07.939Z,17.00
2018-05-31T02:14:07.978Z,16.96
2018-05-31T02:15:08.019Z,16.98
2018-05-31T02:16:08.059Z,16.93
2018-05-31T02:17:08.097Z,17.01
2018-05-31T02:18:08.140Z,16.98
2018-05-31T02:19:08.180Z,16.96
2018-05-31T02:20:08.215Z,16.93
2018-05-31T02:21:08.253Z,17.01
2018-05-31T02:22:08.293Z,17.00
2018-05-31T02:23:08.332Z,16.86
2018-05-31T02:24:08.381Z,17.00
2018-05-31T02:25:08.409Z,16.98
2018-05-31T02:26:08.449Z,16.88
2018-05-31T02:27:08.489Z,16.91
2018-05-31T02:28:08.527Z,16.86
2018-05-31T02:29:08.566Z,16.79
2018-05-31T02:30:08.605Z,16.78
2018-05-31T02:31:08.644Z,16.73
2018-05-31T02:32:08.684Z,16.79
2018-05-31T02:33:08.723Z,16.82
2018-05-31T02:34:08.761Z,16.82
2018-05-31T02:35:08.805Z,16.82
2018-05-31T02:36:08.840Z,16.82
2018-05-31T02:37:08.877Z,16.86
2018-05-31T02:38:08.926Z,16.75
2018-05-31T02:39:08.958Z,16.78
2018-05-31T02:40:09.027Z,16.76
2018-05-31T02:41:09.036Z,16.81
2018-05-31T02:42:09.075Z,16.70
2018-05-31T02:43:09.114Z,16.76
2018-05-31T02:44:09.154Z,16.73
2018-05-31T02:45:09.201Z,16.70
2018-05-31T02:46:09.231Z,16.68
2018-05-31T02:47:09.269Z,16.67
2018-05-31T02:48:09.315Z,16.66
2018-05-31T02:49:09.345Z,16.67
2018-05-31T02:50:09.391Z,16.64
2018-05-31T02:51:09.423Z,16.67
2018-05-31T02:52:09.464Z,16.61
2018-05-31T02:53:09.501Z,16.53
2018-05-31T02:54:09.541Z,16.52
2018-05-31T02:55:09.578Z,16.50
2018-05-31T02:56:09.619Z,16.46
2018-05-31T02:57:09.657Z,16.46
2018-05-31T02:58:09.697Z,16.41
2018-05-31T02:59:09.735Z,16.41
2018-05-31T03:00:09.773Z,16.33
2018-05-31T03:01:09.812Z,16.42
2018-05-31T03:02:09.850Z,16.33
2018-05-31T03:03:09.891Z,16.39
2018-05-31T03:04:09.929Z,16.38
2018-05-31T03:05:09.968Z,16.27
2018-05-31T03:06:10.007Z,16.27
2018-05-31T03:07:10.047Z,16.33
2018-05-31T03:08:10.088Z,16.27
2018-05-31T03:09:10.123Z,16.28
2018-05-31T03:10:10.165Z,16.23
2018-05-31T03:11:10.203Z,16.17
2018-05-31T03:12:10.242Z,16.15
2018-05-31T03:13:10.280Z,16.09
2018-05-31T03:14:10.318Z,16.14
2018-05-31T03:15:10.360Z,16.14
2018-05-31T03:16:10.395Z,16.24
2018-05-31T03:17:10.438Z,16.23
2018-05-31T03:18:10.473Z,16.30
2018-05-31T03:19:10.511Z,16.25
2018-05-31T03:20:10.551Z,16.42
2018-05-31T03:21:10.588Z,16.38
2018-05-31T03:22:10.627Z,16.48
2018-05-31T03:23:10.670Z,16.38
2018-05-31T03:24:10.706Z,16.34
2018-05-31T03:25:10.744Z,16.42
2018-05-31T03:26:10.782Z,16.45
2018-05-31T03:27:10.822Z,16.34
2018-05-31T03:28:10.864Z,16.31
2018-05-31T03:29:10.898Z,16.28
2018-05-31T03:30:10.939Z,16.31
2018-05-31T03:31:10.980Z,16.33
2018-05-31T03:32:11.019Z,16.24
2018-05-31T03:33:11.055Z,16.25
2018-05-31T03:34:11.111Z,16.12
2018-05-31T03:35:11.133Z,16.12
2018-05-31T03:36:11.171Z,16.11
2018-05-31T03:37:11.210Z,16.28
2018-05-31T03:38:11.248Z,16.14
2018-05-31T03:39:11.288Z,16.21
2018-05-31T03:40:11.328Z,16.15
2018-05-31T03:41:11.364Z,16.28
2018-05-31T03:42:11.403Z,16.27
2018-05-31T03:43:11.442Z,16.24
2018-05-31T03:44:11.483Z,16.28
2018-05-31T03:45:11.528Z,16.27
2018-05-31T03:46:11.558Z,16.30
2018-05-31T03:47:11.596Z,16.30
2018-05-31T03:48:11.638Z,16.33
2018-05-31T03:49:11.679Z,16.35
2018-05-31T03:50:11.713Z,16.35
2018-05-31T03:51:11.750Z,16.46
2018-05-31T03:52:11.791Z,16.39
2018-05-31T03:53:11.828Z,16.31
2018-05-31T03:54:11.866Z,16.42
2018-05-31T03:55:11.907Z,16.41
2018-05-31T03:56:11.943Z,16.39
2018-05-31T03:57:11.982Z,16.50
2018-05-31T03:58:12.024Z,16.50
2018-05-31T03:59:12.061Z,16.52
2018-05-31T04:00:12.101Z,16.53
2018-05-31T04:01:12.136Z,16.50
2018-05-31T04:02:12.179Z,16.56
2018-05-31T04:03:12.215Z,16.68
2018-05-31T04:04:12.255Z,16.70
2018-05-31T04:05:12.292Z,16.73
2018-05-31T04:06:12.332Z,16.73
2018-05-31T04:07:12.369Z,16.86
2018-05-31T04:08:12.410Z,16.83
2018-05-31T04:09:12.447Z,16.93
2018-05-31T04:10:12.486Z,16.93
2018-05-31T04:11:12.527Z,16.96
2018-05-31T04:12:12.565Z,16.98
2018-05-31T04:13:12.604Z,17.03
2018-05-31T04:14:12.651Z,17.08
2018-05-31T04:15:12.680Z,17.07
2018-05-31T04:16:12.721Z,17.14
2018-05-31T04:17:12.759Z,17.16
2018-05-31T04:18:12.797Z,17.18
2018-05-31T04:19:12.837Z,17.28
2018-05-31T04:20:12.875Z,17.31
2018-05-31T04:21:12.913Z,17.43
2018-05-31T04:22:12.957Z,17.46
2018-05-31T04:23:12.993Z,17.52
2018-05-31T04:24:13.033Z,17.59
2018-05-31T04:25:13.072Z,17.58
2018-05-31T04:26:13.122Z,17.63
2018-05-31T04:27:13.151Z,17.66
2018-05-31T04:28:13.189Z,17.74
2018-05-31T04:29:13.226Z,17.81
2018-05-31T04:30:13.269Z,17.84
2018-05-31T04:31:13.305Z,17.92
2018-05-31T04:32:13.345Z,17.90
2018-05-31T04:33:13.384Z,17.92
2018-05-31T04:34:13.423Z,18.03
2018-05-31T04:35:13.463Z,18.18
2018-05-31T04:36:13.504Z,18.30
2018-05-31T04:37:13.542Z,18.29
2018-05-31T04:38:13.582Z,18.47
2018-05-31T04:39:13.624Z,18.44
2018-05-31T04:40:13.662Z,18.54
2018-05-31T04:41:13.702Z,18.72
2018-05-31T04:42:13.744Z,18.69
2018-05-31T04:43:13.782Z,18.69
2018-05-31T04:44:13.821Z,18.84
2018-05-31T04:45:13.868Z,18.85
2018-05-31T04:46:13.911Z,18.85
2018-05-31T04:47:13.942Z,18.95
2018-05-31T04:48:13.981Z,19.00
2018-05-31T04:49:14.021Z,19.07
2018-05-31T04:50:14.062Z,19.04
2018-05-31T04:51:14.102Z,18.98
2018-05-31T04:52:14.141Z,19.00
2018-05-31T04:53:14.184Z,18.91
2018-05-31T04:54:14.220Z,18.88
2018-05-31T04:55:14.264Z,18.87
2018-05-31T04:56:14.303Z,18.70
2018-05-31T04:57:14.341Z,18.73
2018-05-31T04:58:14.382Z,18.73
2018-05-31T04:59:14.430Z,18.78
2018-05-31T05:00:14.467Z,18.91
2018-05-31T05:01:14.501Z,18.88
2018-05-31T05:02:14.548Z,18.92
2018-05-31T05:03:14.583Z,18.91
2018-05-31T05:04:14.623Z,18.91
2018-05-31T05:05:14.664Z,18.92
2018-05-31T05:06:14.705Z,18.91
2018-05-31T05:07:14.745Z,19.07
2018-05-31T05:08:14.787Z,19.08
2018-05-31T05:09:14.826Z,19.11
2018-05-31T05:10:14.866Z,19.16
2018-05-31T05:11:14.905Z,19.14
2018-05-31T05:12:14.946Z,19.22
2018-05-31T05:13:14.991Z,19.21
2018-05-31T05:14:15.026Z,19.25
2018-05-31T05:15:15.068Z,19.29
2018-05-31T05:16:15.109Z,19.36
2018-05-31T05:17:15.160Z,19.56
2018-05-31T05:18:15.189Z,19.80
2018-05-31T05:19:15.231Z,19.98
2018-05-31T05:20:15.278Z,20.11
2018-05-31T05:21:15.316Z,19.95
2018-05-31T05:22:15.352Z,19.86
2018-05-31T05:23:15.395Z,19.83
2018-05-31T05:24:15.432Z,20.01
2018-05-31T05:25:15.476Z,20.03
2018-05-31T05:26:15.520Z,20.23
2018-05-31T05:27:15.559Z,20.23
2018-05-31T05:28:15.596Z,20.11
2018-05-31T05:29:15.635Z,19.95
2018-05-31T05:30:15.678Z,19.95
2018-05-31T05:31:15.769Z,19.95
2018-05-31T05:32:15.757Z,19.94
2018-05-31T05:33:15.815Z,19.83
2018-05-31T05:34:15.839Z,19.86
2018-05-31T05:35:15.880Z,19.81
2018-05-31T05:36:15.923Z,19.78
2018-05-31T05:37:15.962Z,19.83
2018-05-31T05:38:16.016Z,19.87
2018-05-31T05:39:16.044Z,19.92
2018-05-31T05:40:16.085Z,19.91
2018-05-31T05:41:16.123Z,19.87
2018-05-31T05:42:16.167Z,19.98
2018-05-31T05:43:16.210Z,19.95
2018-05-31T05:44:16.248Z,19.95
2018-05-31T05:45:16.290Z,19.96
2018-05-31T05:46:16.331Z,19.99
2018-05-31T05:47:16.377Z,19.99
2018-05-31T05:48:16.423Z,19.94
2018-05-31T05:49:16.453Z,20.08
2018-05-31T05:50:16.494Z,20.01
2018-05-31T05:51:16.534Z,20.17
2018-05-31T05:52:16.579Z,20.14
2018-05-31T05:53:16.620Z,20.20
2018-05-31T05:54:16.656Z,20.24
2018-05-31T05:55:16.703Z,20.26
2018-05-31T05:56:16.739Z,20.23
2018-05-31T05:57:16.780Z,20.14
2018-05-31T05:58:16.827Z,20.29
2018-05-31T05:59:16.864Z,20.28
2018-05-31T06:00:16.905Z,20.28
2018-05-31T06:01:16.948Z,20.28
2018-05-31T06:02:16.991Z,20.29
2018-05-31T06:03:17.035Z,20.36
2018-05-31T06:04:17.087Z,20.51
2018-05-31T06:05:17.109Z,20.61
2018-05-31T06:06:17.153Z,20.61
2018-05-31T06:07:17.193Z,20.62
2018-05-31T06:08:17.233Z,20.64
2018-05-31T06:09:17.273Z,20.70
2018-05-31T06:10:17.361Z,20.72
2018-05-31T06:11:17.359Z,20.84
2018-05-31T06:12:17.401Z,20.94
2018-05-31T06:13:17.440Z,20.89
2018-05-31T06:14:17.481Z,20.98
2018-05-31T06:15:17.521Z,21.01
2018-05-31T06:16:17.564Z,21.12
2018-05-31T06:17:17.607Z,21.17
2018-05-31T06:18:17.645Z,21.28
2018-05-31T06:19:17.687Z,21.34
2018-05-31T06:20:17.727Z,21.40
2018-05-31T06:21:17.769Z,21.37
2018-05-31T06:22:17.818Z,21.37
2018-05-31T06:23:17.851Z,21.47
2018-05-31T06:24:17.895Z,21.53
2018-05-31T06:25:17.935Z,21.61
2018-05-31T06:26:17.994Z,21.64
2018-05-31T06:27:18.019Z,21.67
2018-05-31T06:28:18.060Z,21.65
2018-05-31T06:29:18.102Z,21.83
2018-05-31T06:30:18.142Z,21.77
2018-05-31T06:31:18.186Z,21.84
2018-05-31T06:32:18.227Z,21.94
2018-05-31T06:33:18.266Z,22.05
2018-05-31T06:34:18.311Z,22.03
2018-05-31T06:35:18.355Z,22.10
2018-05-31T06:36:18.394Z,22.12
2018-05-31T06:37:18.489Z,22.24
2018-05-31T06:38:18.487Z,22.18
2018-05-31T06:39:18.520Z,22.25
2018-05-31T06:40:18.563Z,22.35
2018-05-31T06:41:18.603Z,22.39
2018-05-31T06:42:18.647Z,22.49
2018-05-31T06:43:18.688Z,22.54
2018-05-31T06:44:18.731Z,22.54
2018-05-31T06:45:18.771Z,22.52
2018-05-31T06:46:18.814Z,22.75
2018-05-31T06:47:18.859Z,22.76
2018-05-31T06:48:18.898Z,22.85
2018-05-31T06:49:18.938Z,22.76
2018-05-31T06:50:18.983Z,22.95
2018-05-31T06:51:19.025Z,23.01
2018-05-31T06:52:19.066Z,23.10
2018-05-31T06:53:19.108Z,23.09
2018-05-31T06:54:19.164Z,23.13
2018-05-31T06:55:19.197Z,23.23
2018-05-31T06:56:19.234Z,23.36
2018-05-31T06:57:19.283Z,23.40
2018-05-31T06:58:19.320Z,23.47
2018-05-31T06:59:19.364Z,23.60
2018-05-31T07:00:19.405Z,23.66
2018-05-31T07:01:19.450Z,23.61
2018-05-31T07:02:19.491Z,23.73
2018-05-31T07:03:19.534Z,23.75
2018-05-31T07:04:19.577Z,23.69
2018-05-31T07:05:19.633Z,23.76
2018-05-31T07:06:19.675Z,23.78
2018-05-31T07:07:19.712Z,23.79
2018-05-31T07:08:19.759Z,23.88
2018-05-31T07:09:19.790Z,23.94
2018-05-31T07:10:19.835Z,23.93
2018-05-31T07:11:19.876Z,23.88
2018-05-31T07:12:20.073Z,23.80
2018-05-31T07:13:19.962Z,23.72
2018-05-31T07:14:20.006Z,23.88
2018-05-31T07:15:20.049Z,23.95
2018-05-31T07:16:20.092Z,24.09
2018-05-31T07:17:20.141Z,23.93
2018-05-31T07:18:20.184Z,23.87
2018-05-31T07:19:20.221Z,23.93
2018-05-31T07:20:20.262Z,23.90
2018-05-31T07:21:20.316Z,23.84
2018-05-31T07:22:20.348Z,23.72
2018-05-31T07:23:20.391Z,23.80
2018-05-31T07:24:20.443Z,23.78
2018-05-31T07:25:20.488Z,23.76
2018-05-31T07:26:20.519Z,23.78
2018-05-31T07:27:20.563Z,23.80
2018-05-31T07:28:20.615Z,23.79
2018-05-31T07:29:20.650Z,23.78
2018-05-31T07:30:20.695Z,23.84
2018-05-31T07:31:20.740Z,23.88
2018-05-31T07:32:20.780Z,23.93
2018-05-31T07:33:20.838Z,24.05
2018-05-31T07:34:20.872Z,24.16
2018-05-31T07:35:20.908Z,24.24
2018-05-31T07:36:20.990Z,24.28
2018-05-31T07:37:21.001Z,24.43
2018-05-31T07:38:21.044Z,24.49
2018-05-31T07:39:21.081Z,24.45
2018-05-31T07:40:21.125Z,24.58
2018-05-31T07:41:21.166Z,24.52
2018-05-31T07:42:21.319Z,24.61
2018-05-31T07:43:21.255Z,24.61
2018-05-31T07:44:21.315Z,24.68
2018-05-31T07:45:21.354Z,24.76
2018-05-31T07:46:21.384Z,24.87
2018-05-31T07:47:21.428Z,24.84
2018-05-31T07:48:21.472Z,24.96
2018-05-31T07:49:21.513Z,25.08
2018-05-31T07:50:21.558Z,25.05
2018-05-31T07:51:21.633Z,25.10
2018-05-31T07:52:21.649Z,25.10
2018-05-31T07:53:21.692Z,25.23
2018-05-31T07:54:21.732Z,25.27
2018-05-31T07:55:21.777Z,25.32
2018-05-31T07:56:21.827Z,25.28
2018-05-31T07:57:21.864Z,25.25
2018-05-31T07:58:21.997Z,25.36
2018-05-31T07:59:21.976Z,25.50
2018-05-31T08:00:21.998Z,25.51
2018-05-31T08:01:22.041Z,25.58
2018-05-31T08:02:22.093Z,25.54
2018-05-31T08:03:22.126Z,25.60
2018-05-31T08:04:22.196Z,25.65
2018-05-31T08:05:22.213Z,25.67
2018-05-31T08:06:22.273Z,25.76
2018-05-31T08:07:22.305Z,25.76
2018-05-31T08:08:22.346Z,25.79
2018-05-31T08:09:22.390Z,25.83
2018-05-31T08:10:22.433Z,25.88
2018-05-31T08:11:22.515Z,25.97
2018-05-31T08:12:22.541Z,25.98
2018-05-31T08:13:22.573Z,26.06
2018-05-31T08:14:22.612Z,25.99
2018-05-31T08:15:22.655Z,26.18
2018-05-31T08:16:22.705Z,26.21
2018-05-31T08:17:22.782Z,26.25
2018-05-31T08:18:22.785Z,26.35
2018-05-31T08:19:22.831Z,26.40
2018-05-31T08:20:22.875Z,26.39
2018-05-31T08:21:22.928Z,26.48
2018-05-31T08:22:22.966Z,26.55
2018-05-31T08:23:23.009Z,26.57
2018-05-31T08:24:23.052Z,26.62
2018-05-31T08:25:23.094Z,26.67
2018-05-31T08:26:23.141Z,26.73
2018-05-31T08:27:23.184Z,26.77
2018-05-31T08:28:23.230Z,26.75
2018-05-31T08:29:23.278Z,26.77
2018-05-31T08:30:23.320Z,26.70
2018-05-31T08:31:23.427Z,26.85
2018-05-31T08:32:23.411Z,26.81
2018-05-31T08:33:23.455Z,26.88
2018-05-31T08:34:23.500Z,26.97
2018-05-31T08:35:23.561Z,26.97
2018-05-31T08:36:23.589Z,26.95
2018-05-31T08:37:23.633Z,26.89
2018-05-31T08:38:23.679Z,26.94
2018-05-31T08:39:23.722Z,26.99
2018-05-31T08:40:23.779Z,27.00
2018-05-31T08:41:23.813Z,27.03
2018-05-31T08:42:23.867Z,26.94
2018-05-31T08:43:23.903Z,26.92
2018-05-31T08:44:23.948Z,26.89
2018-05-31T08:45:23.993Z,26.75
2018-05-31T08:46:24.038Z,26.89
2018-05-31T08:47:24.081Z,26.89
2018-05-31T08:48:24.128Z,26.94
2018-05-31T08:49:24.171Z,27.03
2018-05-31T08:50:24.218Z,27.07
2018-05-31T08:51:24.265Z,27.06
2018-05-31T08:52:24.313Z,27.14
2018-05-31T08:53:24.363Z,27.14
2018-05-31T08:54:24.396Z,27.31
2018-05-31T08:55:24.441Z,27.28
2018-05-31T08:56:24.487Z,27.34
2018-05-31T08:57:24.546Z,27.34
2018-05-31T08:58:24.587Z,27.41
2018-05-31T08:59:24.626Z,27.32
2018-05-31T09:00:24.671Z,27.28
2018-05-31T09:01:24.717Z,27.24
2018-05-31T09:02:24.766Z,27.28
2018-05-31T09:03:24.802Z,27.28
2018-05-31T09:04:24.859Z,27.28
2018-05-31T09:05:24.894Z,27.32
2018-05-31T09:06:24.937Z,27.29
2018-05-31T09:07:24.983Z,27.44
2018-05-31T09:08:25.029Z,27.57
2018-05-31T09:09:25.153Z,27.55
2018-05-31T09:10:25.120Z,27.63
2018-05-31T09:11:25.164Z,27.60
2018-05-31T09:12:25.211Z,27.70
2018-05-31T09:13:25.254Z,27.75
2018-05-31T09:14:25.299Z,27.72
2018-05-31T09:15:25.349Z,27.85
2018-05-31T09:16:25.388Z,27.78
2018-05-31T09:17:25.433Z,27.82
2018-05-31T09:18:25.483Z,27.85
2018-05-31T09:19:25.525Z,27.84
2018-05-31T09:20:25.573Z,27.93
2018-05-31T09:21:25.615Z,27.99
2018-05-31T09:22:25.659Z,28.00
2018-05-31T09:23:25.714Z,28.06
2018-05-31T09:24:25.754Z,28.09
2018-05-31T09:25:25.802Z,28.06
2018-05-31T09:26:25.840Z,28.02
2018-05-31T09:27:25.890Z,28.11
2018-05-31T09:28:25.933Z,28.09
2018-05-31T09:29:25.981Z,28.18
2018-05-31T09:30:26.022Z,28.18
2018-05-31T09:31:26.068Z,28.17
2018-05-31T09:32:26.114Z,28.22
2018-05-31T09:33:26.160Z,28.33
2018-05-31T09:34:26.214Z,28.30
2018-05-31T09:35:26.252Z,28.37
2018-05-31T09:36:26.296Z,28.41
2018-05-31T09:37:26.355Z,28.40
2018-05-31T09:38:26.387Z,28.52
2018-05-31T09:39:26.435Z,28.54
2018-05-31T09:40:26.478Z,28.51
2018-05-31T09:41:26.522Z,28.46
2018-05-31T09:42:26.577Z,28.67
2018-05-31T09:43:26.623Z,28.70
2018-05-31T09:44:26.667Z,28.66
2018-05-31T09:45:26.759Z,28.61
2018-05-31T09:46:26.751Z,28.48
2018-05-31T09:47:26.803Z,28.54
2018-05-31T09:48:26.866Z,28.48
2018-05-31T09:49:26.890Z,28.54
2018-05-31T09:50:26.939Z,28.59
2018-05-31T09:51:26.987Z,28.55
2018-05-31T09:52:27.148Z,28.68
2018-05-31T09:53:27.077Z,28.59
2018-05-31T09:54:27.119Z,28.67
2018-05-31T09:55:27.173Z,28.64
2018-05-31T09:56:27.221Z,28.64
2018-05-31T09:57:27.260Z,28.74
2018-05-31T09:58:27.301Z,28.70
2018-05-31T09:59:27.351Z,28.58
2018-05-31T10:00:27.392Z,28.64
2018-05-31T10:01:27.448Z,28.58
2018-05-31T10:02:27.489Z,28.62
2018-05-31T10:03:27.531Z,28.49
2018-05-31T10:04:27.578Z,28.44
2018-05-31T10:05:27.635Z,28.39
2018-05-31T10:06:27.768Z,28.41
2018-05-31T10:07:27.729Z,28.29
2018-05-31T10:08:27.763Z,28.34
2018-05-31T10:09:27.806Z,28.43
2018-05-31T10:10:27.862Z,28.37
2018-05-31T10:11:27.895Z,28.36
2018-05-31T10:12:27.940Z,28.36
2018-05-31T10:13:27.984Z,28.30
2018-05-31T10:14:28.033Z,28.36
2018-05-31T10:15:28.093Z,28.29
2018-05-31T10:16:28.125Z,28.36
2018-05-31T10:17:28.171Z,28.43
2018-05-31T10:18:28.275Z,28.48
2018-05-31T10:19:28.300Z,28.55
2018-05-31T10:20:28.429Z,28.55
2018-05-31T10:21:28.360Z,28.56
2018-05-31T10:22:28.404Z,28.51
2018-05-31T10:23:28.490Z,28.64
2018-05-31T10:24:28.493Z,28.59
2018-05-31T10:25:28.534Z,28.66
2018-05-31T10:26:28.615Z,28.73
2018-05-31T10:27:28.631Z,28.73
2018-05-31T10:28:28.672Z,28.83
2018-05-31T10:29:28.722Z,28.89
2018-05-31T10:30:28.778Z,28.74
2018-05-31T10:31:28.948Z,28.71
2018-05-31T10:32:28.867Z,28.77
2018-05-31T10:33:29.085Z,28.80
2018-05-31T10:34:28.961Z,28.81
2018-05-31T10:35:29.006Z,28.93
2018-05-31T10:36:29.047Z,28.98
2018-05-31T10:37:29.086Z,28.95
2018-05-31T10:38:29.136Z,29.08
2018-05-31T10:39:29.222Z,29.11
2018-05-31T10:40:29.321Z,29.21
2018-05-31T10:41:29.298Z,29.27
2018-05-31T10:42:29.313Z,29.16
2018-05-31T10:43:29.374Z,29.19
2018-05-31T10:44:29.412Z,29.27
2018-05-31T10:45:29.454Z,29.30
2018-05-31T10:46:29.517Z,29.37
2018-05-31T10:47:29.552Z,29.36
2018-05-31T10:48:29.590Z,29.41
2018-05-31T10:49:29.636Z,29.39
2018-05-31T10:50:29.684Z,29.43
2018-05-31T10:51:29.729Z,29.61
2018-05-31T10:52:29.811Z,29.53
2018-05-31T10:53:29.820Z,29.43
2018-05-31T10:54:29.868Z,29.45
2018-05-31T10:55:29.930Z,29.51
2018-05-31T10:56:29.983Z,29.55
2018-05-31T10:57:30.005Z,29.43
2018-05-31T10:58:30.057Z,29.31
2018-05-31T10:59:30.109Z,29.31
2018-05-31T11:00:30.147Z,29.33
2018-05-31T11:01:30.199Z,29.19
2018-05-31T11:02:30.239Z,29.18
2018-05-31T11:03:30.285Z,29.15
2018-05-31T11:04:30.340Z,29.18
2018-05-31T11:05:30.379Z,29.08
2018-05-31T11:06:30.424Z,29.04
2018-05-31T11:07:30.471Z,28.89
2018-05-31T11:08:30.518Z,29.00
2018-05-31T11:09:30.565Z,29.08
2018-05-31T11:10:30.611Z,29.16
2018-05-31T11:11:30.657Z,29.15
2018-05-31T11:12:30.704Z,29.33
2018-05-31T11:13:30.762Z,29.36
2018-05-31T11:14:30.807Z,29.46
2018-05-31T11:15:30.846Z,29.58
2018-05-31T11:16:30.911Z,29.63
2018-05-31T11:17:30.931Z,29.64
2018-05-31T11:18:30.979Z,29.71
2018-05-31T11:19:31.028Z,29.73
2018-05-31T11:20:31.110Z,29.76
2018-05-31T11:21:31.144Z,29.74
2018-05-31T11:22:31.165Z,29.71
2018-05-31T11:23:31.211Z,29.82
2018-05-31T11:24:31.264Z,29.85
2018-05-31T11:25:31.328Z,29.95
2018-05-31T11:26:31.354Z,29.94
2018-05-31T11:27:31.406Z,30.05
2018-05-31T11:28:31.452Z,30.11
2018-05-31T11:29:31.500Z,30.20
2018-05-31T11:30:31.537Z,30.04
2018-05-31T11:31:31.581Z,30.11
2018-05-31T11:32:31.635Z,30.15
2018-05-31T11:33:31.679Z,30.17
2018-05-31T11:34:31.769Z,30.16
2018-05-31T11:35:31.820Z,30.16
2018-05-31T11:36:31.830Z,30.10
2018-05-31T11:37:31.876Z,29.94
2018-05-31T11:38:31.921Z,30.02
2018-05-31T11:39:31.958Z,29.92
2018-05-31T11:40:32.007Z,29.95
2018-05-31T11:41:32.095Z,30.13
2018-05-31T11:42:32.097Z,30.23
2018-05-31T11:43:32.192Z,30.38
2018-05-31T11:44:32.192Z,30.38
2018-05-31T11:45:32.238Z,30.53
2018-05-31T11:46:32.292Z,30.72
2018-05-31T11:47:32.332Z,30.86
2018-05-31T11:48:32.379Z,30.89
2018-05-31T11:49:32.489Z,31.04
2018-05-31T11:50:32.472Z,30.97
2018-05-31T11:51:32.521Z,30.97
2018-05-31T11:52:32.567Z,30.92
2018-05-31T11:53:32.611Z,30.95
2018-05-31T11:54:32.844Z,30.99
2018-05-31T11:55:32.714Z,30.75
2018-05-31T11:56:32.758Z,30.82
2018-05-31T11:57:32.820Z,30.83
2018-05-31T11:58:32.862Z,30.88
2018-05-31T11:59:32.899Z,30.92
2018-05-31T12:00:32.971Z,30.77
2018-05-31T12:01:32.996Z,30.89
2018-05-31T12:02:33.075Z,30.91
2018-05-31T12:03:33.093Z,31.06
2018-05-31T12:04:33.236Z,31.06
2018-05-31T12:05:33.180Z,31.17
2018-05-31T12:06:33.288Z,31.26
2018-05-31T12:07:33.275Z,31.21
2018-05-31T12:08:33.323Z,31.13
2018-05-31T12:09:33.378Z,31.23
2018-05-31T12:10:33.425Z,31.34
2018-05-31T12:11:33.471Z,31.38
2018-05-31T12:12:33.513Z,31.19
2018-05-31T12:13:33.573Z,30.97
2018-05-31T12:14:33.607Z,31.19
2018-05-31T12:15:33.654Z,31.29
2018-05-31T12:16:33.711Z,31.41
2018-05-31T12:17:33.769Z,31.51
2018-05-31T12:18:33.931Z,31.56
2018-05-31T12:19:33.846Z,31.63
2018-05-31T12:20:33.894Z,31.56
2018-05-31T12:21:33.940Z,31.54
2018-05-31T12:22:33.989Z,31.53
2018-05-31T12:23:34.035Z,31.61
2018-05-31T12:24:34.087Z,31.56
2018-05-31T12:25:34.190Z,31.62
2018-05-31T12:26:34.195Z,31.63
2018-05-31T12:27:34.287Z,31.63
2018-05-31T12:28:34.285Z,31.78
2018-05-31T12:29:34.965Z,31.84
2018-05-31T12:30:34.375Z,31.76
2018-05-31T12:31:34.420Z,31.96
2018-05-31T12:32:34.473Z,31.84
2018-05-31T12:33:34.521Z,31.75
2018-05-31T12:34:34.581Z,31.75
2018-05-31T12:35:34.615Z,31.81
2018-05-31T12:36:34.660Z,31.96
2018-05-31T12:37:34.711Z,32.13
2018-05-31T12:38:34.762Z,32.18
2018-05-31T12:39:34.825Z,32.22
2018-05-31T12:40:34.856Z,32.33
2018-05-31T12:41:34.903Z,32.30
2018-05-31T12:42:34.949Z,32.37
2018-05-31T12:43:34.999Z,32.41
2018-05-31T12:44:35.049Z,32.44
2018-05-31T12:45:35.103Z,32.45
2018-05-31T12:46:35.144Z,32.48
2018-05-31T12:47:35.196Z,32.60
2018-05-31T12:48:35.564Z,32.72
2018-05-31T12:49:35.299Z,32.63
2018-05-31T12:50:35.352Z,32.67
2018-05-31T12:51:35.390Z,32.96
2018-05-31T12:52:35.435Z,33.03